Time;durP1;ratioP1;P1;durP2;ratioP2;P2;SDS_P1;SDS_P2;PMS_P1;PMS_P2;Temp;Humidity;BMP_temperature;BMP_pressure;BME280_temperature;BME280_humidity;BME280_pressure;Samples;Min_cycle;Max_cycle;Signal;HPM_P1;HPM_P2
2023/02/08 00:00:43;;;;;;;17.60;7.95;;;-2.20;99.90;;;;;;5036218;28;20036;-77
2023/02/08 00:03:12;;;;;;;27.23;8.27;;;-2.20;99.90;;;;;;5035715;28;20108;-78
2023/02/08 00:05:40;;;;;;;17.70;7.43;;;-2.20;99.90;;;;;;5037097;28;20099;-77
2023/02/08 00:08:06;;;;;;;13.20;5.78;;;-2.20;99.90;;;;;;5035703;28;20032;-77
2023/02/08 00:10:32;;;;;;;21.58;7.32;;;-2.20;99.90;;;;;;5035572;28;20029;-78
2023/02/08 00:12:58;;;;;;;22.55;8.45;;;-2.20;99.90;;;;;;5035138;28;20057;-78
2023/02/08 00:15:24;;;;;;;22.10;7.93;;;-1.30;99.90;;;;;;5035745;28;20017;-77
2023/02/08 00:17:50;;;;;;;22.85;8.82;;;-2.20;99.90;;;;;;5035273;28;20136;-77
2023/02/08 00:20:16;;;;;;;20.98;8.70;;;-2.20;99.90;;;;;;5035064;28;20036;-78
2023/02/08 00:22:42;;;;;;;18.13;7.88;;;-0.10;99.90;;;;;;5036502;28;20040;-77
2023/02/08 00:25:08;;;;;;;17.85;7.90;;;-2.10;99.90;;;;;;5034980;28;20108;-78
2023/02/08 00:27:33;;;;;;;21.92;8.20;;;-2.20;99.90;;;;;;5036721;28;20033;-77
2023/02/08 00:29:59;;;;;;;17.17;7.20;;;-2.20;99.90;;;;;;5036215;28;20052;-78
2023/02/08 00:32:27;;;;;;;21.73;8.40;;;-2.30;99.90;;;;;;5036872;28;20032;-77
2023/02/08 00:34:53;;;;;;;14.50;5.95;;;-2.30;99.90;;;;;;5035200;28;20025;-77
2023/02/08 00:37:18;;;;;;;19.83;8.35;;;-2.30;99.90;;;;;;5034405;28;20021;-77
2023/02/08 00:39:47;;;;;;;21.02;7.35;;;-2.40;99.90;;;;;;5034952;28;20025;-77
2023/02/08 00:42:12;;;;;;;19.45;7.78;;;-2.30;99.90;;;;;;5036052;28;20033;-78
2023/02/08 00:44:40;;;;;;;17.10;7.22;;;-2.30;99.90;;;;;;5034297;28;20025;-77
2023/02/08 00:47:06;;;;;;;14.73;6.55;;;-2.30;99.90;;;;;;5035504;28;20544;-77
2023/02/08 00:49:38;;;;;;;21.60;7.47;;;-2.50;99.90;;;;;;5034374;28;20049;-78
2023/02/08 00:52:04;;;;;;;20.70;7.28;;;-2.40;99.90;;;;;;5034428;28;20021;-77
2023/02/08 00:54:31;;;;;;;17.42;6.80;;;-2.40;99.90;;;;;;5034354;28;20060;-77
2023/02/08 00:56:56;;;;;;;18.80;7.47;;;-2.40;99.90;;;;;;5034275;28;20103;-77
2023/02/08 00:59:22;;;;;;;20.40;6.43;;;-2.40;99.90;;;;;;5035023;28;20033;-77
2023/02/08 01:01:50;;;;;;;18.85;6.57;;;-2.40;99.90;;;;;;5035510;28;20049;-77
2023/02/08 01:04:16;;;;;;;19.50;8.00;;;-2.40;99.90;;;;;;5035598;28;20036;-77
2023/02/08 01:06:41;;;;;;;19.08;6.97;;;-2.40;99.90;;;;;;5035420;28;20017;-77
2023/02/08 01:09:10;;;;;;;20.17;7.03;;;-2.40;99.90;;;;;;5034137;28;20489;-76
2023/02/08 01:11:35;;;;;;;17.13;7.15;;;-2.50;99.90;;;;;;5035054;28;20038;-78
2023/02/08 01:14:07;;;;;;;14.02;6.63;;;-2.10;99.90;;;;;;5033990;28;20023;-77
2023/02/08 01:16:35;;;;;;;20.70;7.60;;;-2.60;99.90;;;;;;5035265;28;20391;-77
2023/02/08 01:19:03;;;;;;;16.38;6.15;;;-2.60;99.90;;;;;;5035177;28;20055;-77
2023/02/08 01:21:34;;;;;;;17.42;6.95;;;-2.60;99.90;;;;;;5032542;28;20041;-77
2023/02/08 01:24:00;;;;;;;17.63;6.60;;;-2.60;99.90;;;;;;5033927;28;20025;-77
2023/02/08 01:26:26;;;;;;;18.27;7.25;;;-2.60;99.90;;;;;;5034973;28;20021;-77
2023/02/08 01:28:53;;;;;;;19.20;6.45;;;-2.60;99.90;;;;;;5033642;28;20025;-77
2023/02/08 01:31:23;;;;;;;19.90;7.28;;;-2.60;99.90;;;;;;5034998;28;20030;-77
2023/02/08 01:33:52;;;;;;;21.13;7.25;;;-2.70;99.90;;;;;;5034963;28;20052;-77
2023/02/08 01:36:18;;;;;;;17.90;7.00;;;-2.70;99.90;;;;;;5033665;28;20030;-77
2023/02/08 01:38:47;;;;;;;16.30;7.10;;;-2.70;99.90;;;;;;5033331;28;20028;-78
2023/02/08 01:41:36;;;;;;;21.65;6.80;;;-2.70;99.90;;;;;;5034810;28;20049;-77
2023/02/08 01:44:07;;;;;;;17.55;6.70;;;-2.70;99.90;;;;;;5035191;28;20018;-77
2023/02/08 01:46:36;;;;;;;15.65;6.43;;;-2.70;99.90;;;;;;5033469;28;20033;-77
2023/02/08 01:49:18;;;;;;;16.50;7.28;;;-2.70;99.90;;;;;;5033111;28;20515;-78
2023/02/08 01:51:52;;;;;;;14.38;6.57;;;-2.70;99.90;;;;;;5033151;28;20025;-77
2023/02/08 01:54:21;;;;;;;16.40;6.80;;;-2.60;99.90;;;;;;5033077;28;20060;-77
2023/02/08 01:56:48;;;;;;;22.60;7.43;;;-2.70;99.90;;;;;;5033383;28;20027;-77
2023/02/08 01:59:19;;;;;;;17.75;7.07;;;-2.70;99.90;;;;;;5033728;28;20025;-77
2023/02/08 02:01:50;;;;;;;16.58;6.18;;;-2.70;99.90;;;;;;5033183;28;20029;-77
2023/02/08 02:04:18;;;;;;;17.35;6.65;;;0.00;99.90;;;;;;5032844;28;20028;-77
2023/02/08 02:07:00;;;;;;;17.45;7.18;;;-2.60;99.90;;;;;;5034495;28;20021;-77
2023/02/08 02:09:51;;;;;;;16.75;6.90;;;-2.60;99.90;;;;;;5034045;28;20025;-77
2023/02/08 02:12:20;;;;;;;18.08;5.78;;;-2.60;99.90;;;;;;5034310;28;20025;-77
2023/02/08 02:14:46;;;;;;;17.65;6.35;;;-2.60;99.90;;;;;;5033378;28;20472;-77
2023/02/08 02:17:17;;;;;;;16.88;6.90;;;-2.60;99.90;;;;;;5033113;28;20029;-77
2023/02/08 02:20:05;;;;;;;14.57;6.88;;;-0.10;99.90;;;;;;5033064;28;20056;-77
2023/02/08 02:22:32;;;;;;;17.77;6.95;;;-2.60;99.90;;;;;;5061467;22;20404;-75
2023/02/08 02:25:57;;;;;;;16.48;5.60;;;-2.60;99.90;;;;;;5032500;28;20029;-76
2023/02/08 02:29:05;;;;;;;18.55;6.72;;;-2.70;99.90;;;;;;4992096;28;20082;-76
2023/02/08 02:31:49;;;;;;;16.67;6.80;;;-2.70;99.90;;;;;;4989234;28;20481;-77
2023/02/08 02:34:47;;;;;;;17.20;6.78;;;-2.70;99.90;;;;;;5026055;28;20442;-75
2023/02/08 02:37:25;;;;;;;19.55;8.00;;;-2.70;99.90;;;;;;5033777;28;20026;-75
2023/02/08 02:40:16;;;;;;;17.27;6.97;;;0.20;99.90;;;;;;5032164;28;20041;-76
2023/02/08 02:45:46;;;;;;;14.77;6.57;;;-2.80;99.90;;;;;;5034392;28;20091;-78
2023/02/08 02:48:27;;;;;;;20.65;7.28;;;-2.20;99.90;;;;;;5032619;28;20400;-74
2023/02/08 02:51:08;;;;;;;18.45;7.50;;;-2.80;99.90;;;;;;5034377;28;20025;-75
2023/02/08 02:53:58;;;;;;;17.77;7.03;;;-2.80;99.90;;;;;;5032354;28;20021;-75
2023/02/08 02:56:33;;;;;;;19.08;6.85;;;-2.80;99.90;;;;;;5032396;28;20022;-76
2023/02/08 02:59:05;;;;;;;22.90;6.45;;;-2.90;99.90;;;;;;5033437;28;20244;-75
2023/02/08 03:01:33;;;;;;;16.63;6.50;;;-3.00;99.90;;;;;;5033546;28;20028;-75
2023/02/08 03:04:13;;;;;;;18.42;7.30;;;-3.10;99.90;;;;;;5032020;28;20025;-75
2023/02/08 03:06:45;;;;;;;19.35;7.10;;;-3.00;99.90;;;;;;5032241;28;20044;-75
2023/02/08 03:09:30;;;;;;;18.98;7.35;;;-3.10;99.90;;;;;;5033888;28;20034;-75
2023/02/08 03:12:06;;;;;;;16.42;6.47;;;-3.10;99.90;;;;;;5033921;28;20021;-76
2023/02/08 03:14:54;;;;;;;16.08;6.20;;;-3.10;99.90;;;;;;5032489;28;20395;-75
2023/02/08 03:18:03;;;;;;;18.10;7.20;;;-3.10;99.90;;;;;;5019806;28;20038;-75
2023/02/08 03:20:41;;;;;;;;;;;-3.00;99.90;;;;;;5032219;28;20030;-75
2023/02/08 03:23:28;;;;;;;12.33;4.67;;;-3.10;99.90;;;;;;5031770;28;20398;-75
2023/02/08 03:26:22;;;;;;;21.05;7.15;;;-3.00;99.90;;;;;;5032869;28;20321;-75
2023/02/08 03:29:05;;;;;;;16.27;6.80;;;-2.90;99.90;;;;;;5032834;28;20033;-75
2023/02/08 03:31:37;;;;;;;16.95;7.07;;;-2.90;99.90;;;;;;5031506;28;20021;-75
2023/02/08 03:34:31;;;;;;;15.65;6.47;;;-2.90;99.90;;;;;;5031794;28;20024;-75
2023/02/08 03:37:22;;;;;;;14.63;6.32;;;-2.90;99.90;;;;;;5031867;28;20029;-75
2023/02/08 03:39:54;;;;;;;18.52;6.70;;;-3.00;99.90;;;;;;5031718;28;20041;-76
2023/02/08 03:42:24;;;;;;;14.20;6.18;;;-3.00;99.90;;;;;;5032584;28;20173;-76
2023/02/08 03:45:04;;;;;;;19.63;6.85;;;-3.00;99.90;;;;;;5032998;28;20021;-75
2023/02/08 03:47:35;;;;;;;17.08;6.93;;;-2.00;99.90;;;;;;5036228;28;20149;-76
2023/02/08 03:50:07;;;;;;;16.73;6.90;;;-3.00;99.90;;;;;;5035731;28;20017;-76
2023/02/08 03:52:34;;;;;;;14.13;6.57;;;-3.10;99.90;;;;;;5036451;28;20104;-76
2023/02/08 03:55:08;;;;;;;16.33;6.55;;;-3.10;99.90;;;;;;5036324;28;20026;-76
2023/02/08 03:57:39;;;;;;;15.02;5.97;;;-3.20;99.90;;;;;;5035439;28;20084;-75
2023/02/08 04:00:09;;;;;;;12.63;5.88;;;-3.30;99.90;;;;;;5036938;28;20407;-76
2023/02/08 04:02:41;;;;;;;17.77;6.20;;;-3.40;99.90;;;;;;5036216;28;20030;-76
2023/02/08 04:05:08;;;;;;;15.25;6.47;;;-3.40;99.90;;;;;;5035021;28;20175;-76
2023/02/08 04:07:33;;;;;;;14.25;5.88;;;-3.40;99.90;;;;;;5036305;28;20048;-76
2023/02/08 04:09:59;;;;;;;14.65;6.38;;;-3.50;99.90;;;;;;5034723;28;20009;-76
2023/02/08 04:12:25;;;;;;;13.90;5.65;;;-3.50;99.90;;;;;;5035070;28;20032;-76
2023/02/08 04:14:51;;;;;;;16.95;6.50;;;-3.50;99.90;;;;;;5036144;28;20104;-76
2023/02/08 04:17:17;;;;;;;13.85;5.40;;;-3.40;99.90;;;;;;5034788;28;20029;-76
2023/02/08 04:19:45;;;;;;;15.50;6.20;;;-3.40;99.90;;;;;;5036372;28;20032;-76
2023/02/08 04:22:11;;;;;;;17.33;6.50;;;-3.40;99.90;;;;;;5034323;28;20044;-76
2023/02/08 04:24:36;;;;;;;14.82;5.68;;;-3.40;99.90;;;;;;5036430;28;20029;-76
2023/02/08 04:27:02;;;;;;;16.55;6.18;;;-3.40;99.90;;;;;;5034669;28;20472;-75
2023/02/08 04:29:28;;;;;;;15.32;5.93;;;-3.50;99.90;;;;;;5034891;28;20044;-75
2023/02/08 04:31:53;;;;;;;15.93;5.88;;;-3.50;99.90;;;;;;5035246;28;20080;-75
2023/02/08 04:34:19;;;;;;;12.60;5.70;;;-3.50;99.90;;;;;;5035558;28;20046;-76
2023/02/08 04:36:45;;;;;;;14.98;5.68;;;-3.50;99.90;;;;;;5034352;28;20453;-76
2023/02/08 04:39:16;;;;;;;14.73;6.15;;;-3.50;99.90;;;;;;5035631;28;20431;-75
2023/02/08 04:41:42;;;;;;;14.45;6.07;;;-3.50;99.90;;;;;;5035485;28;20076;-75
2023/02/08 04:44:10;;;;;;;16.60;6.10;;;-3.50;99.90;;;;;;5035378;28;20033;-75
2023/02/08 04:46:38;;;;;;;12.98;4.30;;;-3.70;99.90;;;;;;5035268;28;20385;-76
2023/02/08 04:49:04;;;;;;;15.63;5.75;;;-3.60;99.90;;;;;;5034277;28;20492;-75
2023/02/08 04:51:36;;;;;;;14.48;5.75;;;-3.60;99.90;;;;;;5034115;28;20032;-76
2023/02/08 04:54:02;;;;;;;15.20;5.65;;;-0.90;99.90;;;;;;5035354;28;20029;-76
2023/02/08 04:56:27;;;;;;;16.88;6.50;;;-3.60;99.90;;;;;;5034741;28;20026;-76
2023/02/08 04:58:53;;;;;;;16.05;6.75;;;-3.50;99.90;;;;;;5034459;28;20033;-76
2023/02/08 05:01:21;;;;;;;13.25;5.68;;;-3.50;99.90;;;;;;5034864;28;20032;-76
2023/02/08 05:03:48;;;;;;;13.60;5.85;;;-3.50;99.90;;;;;;5033301;28;20481;-75
2023/02/08 05:06:13;;;;;;;14.55;6.13;;;-3.40;99.90;;;;;;5033448;28;20060;-75
2023/02/08 05:08:39;;;;;;;14.07;5.55;;;-3.40;99.90;;;;;;5033575;28;20021;-76
2023/02/08 05:11:05;;;;;;;16.40;6.00;;;-3.40;99.90;;;;;;5034552;28;20040;-76
2023/02/08 05:13:30;;;;;;;15.65;6.15;;;-3.40;99.90;;;;;;5034889;28;20076;-77
2023/02/08 05:16:00;;;;;;;16.98;5.78;;;-3.30;99.90;;;;;;5035480;28;20116;-77
2023/02/08 05:18:25;;;;;;;13.70;5.97;;;-3.30;99.90;;;;;;5033653;28;20025;-78
2023/02/08 05:21:00;;;;;;;15.35;6.13;;;-1.60;99.90;;;;;;5034154;28;20040;-77
2023/02/08 05:23:26;;;;;;;18.30;5.80;;;-3.30;99.90;;;;;;5034707;28;20025;-78
2023/02/08 05:25:55;;;;;;;14.27;5.40;;;-3.30;99.90;;;;;;5033384;28;20022;-77
2023/02/08 05:28:24;;;;;;;20.02;6.18;;;-3.30;99.90;;;;;;5033109;28;20396;-77
2023/02/08 05:30:50;;;;;;;16.17;5.50;;;-2.80;99.90;;;;;;5034302;28;20068;-78
2023/02/08 05:33:17;;;;;;;14.00;5.10;;;-3.30;99.90;;;;;;5033255;28;20052;-77
2023/02/08 05:35:44;;;;;;;16.38;6.03;;;-3.40;99.90;;;;;;5033132;28;20044;-77
2023/02/08 05:38:13;;;;;;;15.32;5.47;;;-3.40;99.90;;;;;;5033429;28;20036;-77
2023/02/08 05:40:38;;;;;;;14.70;5.45;;;-3.40;99.90;;;;;;5033149;28;20036;-77
2023/02/08 05:43:04;;;;;;;14.05;5.30;;;-3.50;99.90;;;;;;5033332;28;20480;-77
2023/02/08 05:45:33;;;;;;;16.10;6.25;;;-3.50;99.90;;;;;;5033011;28;20148;-78
2023/02/08 05:47:59;;;;;;;20.08;6.28;;;-1.80;99.90;;;;;;5032859;28;20022;-77
2023/02/08 05:50:27;;;;;;;20.33;5.57;;;-3.60;99.90;;;;;;5033381;28;20503;-77
2023/02/08 05:52:52;;;;;;;18.57;5.63;;;-3.70;99.90;;;;;;5033734;28;20116;-77
2023/02/08 05:55:20;;;;;;;16.65;6.00;;;-3.80;99.90;;;;;;5033682;28;20516;-77
2023/02/08 05:57:53;;;;;;;15.27;6.07;;;-4.00;99.90;;;;;;5033622;28;20022;-77
2023/02/08 06:00:22;;;;;;;11.85;5.10;;;-3.80;99.90;;;;;;5034707;28;20029;-77
2023/02/08 06:02:48;;;;;;;13.90;6.68;;;-3.80;99.90;;;;;;5034959;28;20033;-77
2023/02/08 06:05:13;;;;;;;14.57;6.20;;;-3.80;99.90;;;;;;5035077;28;20026;-77
2023/02/08 06:07:43;;;;;;;19.52;6.30;;;-3.80;99.90;;;;;;5033682;28;20491;-77
2023/02/08 06:10:10;;;;;;;15.68;6.20;;;-3.70;99.90;;;;;;5034217;28;20361;-77
2023/02/08 06:12:37;;;;;;;14.43;6.05;;;-3.70;99.90;;;;;;5033913;28;20025;-77
2023/02/08 06:15:03;;;;;;;14.93;6.50;;;-3.70;99.90;;;;;;5034434;28;20499;-77
2023/02/08 06:17:28;;;;;;;15.25;5.80;;;-3.70;99.90;;;;;;5034826;28;20021;-78
2023/02/08 06:19:54;;;;;;;14.52;5.32;;;-3.60;99.90;;;;;;5033229;28;20033;-78
2023/02/08 06:22:19;;;;;;;13.95;5.40;;;-3.70;99.90;;;;;;5034110;28;20515;-77
2023/02/08 06:24:51;;;;;;;16.42;6.40;;;-1.90;99.90;;;;;;5033765;28;20416;-77
2023/02/08 06:27:19;;;;;;;16.05;6.18;;;-3.70;99.90;;;;;;5033815;28;20120;-77
2023/02/08 06:29:45;;;;;;;22.20;6.68;;;-3.60;99.90;;;;;;5033761;28;20029;-78
2023/02/08 06:32:11;;;;;;;12.90;5.53;;;-3.60;99.90;;;;;;5032960;28;20033;-77
2023/02/08 06:34:36;;;;;;;17.20;6.00;;;-3.70;99.90;;;;;;5032626;28;20360;-76
2023/02/08 06:37:04;;;;;;;14.80;5.53;;;-3.60;99.90;;;;;;5034028;28;20041;-78
2023/02/08 06:39:30;;;;;;;19.25;7.35;;;-3.60;99.90;;;;;;5033663;28;20384;-77
2023/02/08 06:41:56;;;;;;;16.85;6.95;;;-3.60;99.90;;;;;;5034435;28;20025;-78
2023/02/08 06:44:22;;;;;;;14.30;5.82;;;-3.50;99.90;;;;;;5033872;28;20079;-78
2023/02/08 06:46:48;;;;;;;17.58;6.03;;;-3.50;99.90;;;;;;5032984;28;20468;-78
2023/02/08 06:49:13;;;;;;;14.52;6.07;;;-1.70;99.90;;;;;;5034110;28;20024;-78
2023/02/08 06:51:40;;;;;;;15.90;6.03;;;-3.50;99.90;;;;;;5034292;28;20018;-78
2023/02/08 06:54:05;;;;;;;16.30;5.45;;;-3.50;99.90;;;;;;5033152;28;20025;-78
2023/02/08 06:56:31;;;;;;;16.20;6.15;;;-3.50;99.90;;;;;;5033039;28;20033;-77
2023/02/08 06:58:57;;;;;;;24.80;6.63;;;-3.50;99.90;;;;;;5033056;28;20061;-78
2023/02/08 07:01:23;;;;;;;15.88;5.75;;;-3.50;99.90;;;;;;5032804;28;20507;-79
2023/02/08 07:03:48;;;;;;;17.15;6.25;;;-3.50;99.90;;;;;;5032567;28;20033;-77
2023/02/08 07:06:16;;;;;;;14.60;6.22;;;-3.40;99.90;;;;;;5032735;28;20029;-78
2023/02/08 07:08:42;;;;;;;17.65;6.28;;;-3.40;99.90;;;;;;5033778;28;20037;-77
2023/02/08 07:11:14;;;;;;;15.80;6.30;;;-3.40;99.90;;;;;;5033884;28;20492;-77
2023/02/08 07:13:39;;;;;;;20.45;5.80;;;-3.30;99.90;;;;;;5032766;28;20079;-77
2023/02/08 07:16:06;;;;;;;12.45;5.47;;;-3.30;99.90;;;;;;5034075;28;20029;-78
2023/02/08 07:18:32;;;;;;;18.80;5.65;;;-3.30;99.90;;;;;;5032596;28;20028;-76
2023/02/08 07:20:57;;;;;;;13.65;5.47;;;-3.30;99.90;;;;;;5035185;28;20033;-77
2023/02/08 07:23:23;;;;;;;13.70;6.28;;;-3.30;99.90;;;;;;5035687;28;20404;-77
2023/02/08 07:26:04;;;;;;;17.42;6.82;;;-3.30;99.90;;;;;;5035464;28;20017;-77
2023/02/08 07:28:30;;;;;;;15.90;6.05;;;-3.20;99.90;;;;;;5035479;28;20112;-77
2023/02/08 07:30:56;;;;;;;13.68;6.68;;;-3.20;99.90;;;;;;5035237;28;20500;-77
2023/02/08 07:33:22;;;;;;;17.35;6.75;;;-3.30;99.90;;;;;;5035417;28;20052;-77
2023/02/08 07:35:48;;;;;;;17.45;6.30;;;-3.30;99.90;;;;;;5035416;28;20029;-79
2023/02/08 07:38:14;;;;;;;14.18;6.00;;;-3.30;99.90;;;;;;5035381;28;20026;-77
2023/02/08 07:40:39;;;;;;;17.02;6.05;;;-3.20;99.90;;;;;;5035253;28;20026;-77
2023/02/08 07:43:05;;;;;;;15.20;6.07;;;-3.20;99.90;;;;;;5035412;28;20116;-77
2023/02/08 07:45:30;;;;;;;15.88;6.03;;;-3.10;99.90;;;;;;5036539;28;20484;-77
2023/02/08 07:47:56;;;;;;;17.65;6.68;;;-3.10;99.90;;;;;;5035371;28;20022;-77
2023/02/08 07:50:22;;;;;;;17.85;6.82;;;-2.90;99.90;;;;;;5035218;28;20030;-77
2023/02/08 07:52:47;;;;;;;18.65;6.05;;;-2.80;99.90;;;;;;5036320;28;20167;-79
2023/02/08 07:55:17;;;;;;;21.02;6.80;;;-2.70;99.90;;;;;;5036342;28;20079;-77
2023/02/08 07:57:47;;;;;;;18.85;6.03;;;-2.70;99.90;;;;;;5036486;28;20515;-77
2023/02/08 08:00:15;;;;;;;19.80;6.78;;;-2.50;99.90;;;;;;5036401;28;20078;-77
2023/02/08 08:02:41;;;;;;;15.20;5.93;;;-2.40;99.90;;;;;;5034810;28;20036;-77
2023/02/08 08:05:07;;;;;;;15.23;6.65;;;-2.30;99.90;;;;;;5036153;28;20021;-77
2023/02/08 08:07:32;;;;;;;15.52;6.28;;;-2.20;99.90;;;;;;5036150;28;20477;-77
2023/02/08 08:09:58;;;;;;;18.60;6.22;;;-2.00;99.90;;;;;;5034598;28;20018;-77
2023/02/08 08:12:23;;;;;;;12.88;6.00;;;-1.90;99.90;;;;;;5034613;28;20022;-77
2023/02/08 08:14:50;;;;;;;16.67;6.10;;;-1.70;99.90;;;;;;5035985;28;20041;-77
2023/02/08 08:17:16;;;;;;;16.17;6.03;;;-1.60;99.90;;;;;;5034551;28;20043;-77
2023/02/08 08:19:42;;;;;;;17.08;5.95;;;-1.10;99.90;;;;;;5034742;28;20484;-77
2023/02/08 08:22:07;;;;;;;16.25;6.10;;;-1.40;99.90;;;;;;5034277;28;20072;-77
2023/02/08 08:24:36;;;;;;;13.15;5.13;;;-1.30;99.90;;;;;;5034580;28;20022;-77
2023/02/08 08:27:02;;;;;;;13.48;5.80;;;-1.20;99.90;;;;;;5035713;28;20045;-77
2023/02/08 08:29:30;;;;;;;16.73;5.97;;;-1.10;99.90;;;;;;5034439;28;20026;-77
2023/02/08 08:31:56;;;;;;;14.02;5.72;;;-1.10;99.90;;;;;;5034989;28;20025;-78
2023/02/08 08:34:28;;;;;;;18.50;6.90;;;-1.00;99.90;;;;;;5035503;28;20083;-77
2023/02/08 08:36:57;;;;;;;13.52;5.97;;;-0.90;99.90;;;;;;5034327;28;20116;-77
2023/02/08 08:39:23;;;;;;;;;;;-0.80;99.90;;;;;;5034661;28;20112;-77
2023/02/08 08:41:48;;;;;;;14.35;5.63;;;-0.70;99.90;;;;;;5033924;28;20012;-78
2023/02/08 08:44:15;;;;;;;15.38;6.15;;;-0.60;99.90;;;;;;5034449;28;20100;-77
2023/02/08 08:46:40;;;;;;;18.90;5.65;;;-0.50;99.90;;;;;;5033872;28;20022;-77
2023/02/08 08:49:06;;;;;;;17.35;6.00;;;-0.50;99.90;;;;;;5035301;28;20044;-77
2023/02/08 08:51:34;;;;;;;18.40;6.38;;;-0.40;99.90;;;;;;5033935;28;20112;-77
2023/02/08 08:54:03;;;;;;;15.27;4.43;;;-0.30;99.90;;;;;;5035128;28;20022;-77
2023/02/08 08:56:29;;;;;;;15.52;5.90;;;-0.20;99.90;;;;;;5034922;28;20029;-77
2023/02/08 08:58:55;;;;;;;11.25;5.25;;;-0.10;99.90;;;;;;5033818;28;20079;-77
2023/02/08 09:01:21;;;;;;;13.60;5.90;;;0.00;99.90;;;;;;5033463;28;20025;-77
2023/02/08 09:03:46;;;;;;;17.38;6.40;;;0.00;99.90;;;;;;5033780;28;20022;-77
2023/02/08 09:06:12;;;;;;;16.75;6.03;;;0.10;99.90;;;;;;5034962;28;20053;-77
2023/02/08 09:08:38;;;;;;;14.88;5.72;;;0.20;99.90;;;;;;5035077;28;20030;-77
2023/02/08 09:11:09;;;;;;;15.30;5.25;;;0.20;99.90;;;;;;5033530;28;20120;-77
2023/02/08 09:13:36;;;;;;;14.00;5.55;;;0.30;99.90;;;;;;5033488;28;20108;-77
2023/02/08 09:16:13;;;;;;;14.30;5.32;;;0.40;99.90;;;;;;5033654;28;20021;-77
2023/02/08 09:18:38;;;;;;;15.13;6.82;;;0.40;99.90;;;;;;5033383;28;20136;-77
2023/02/08 09:21:06;;;;;;;14.02;5.30;;;0.50;99.90;;;;;;5033215;28;20037;-78
2023/02/08 09:23:32;;;;;;;13.40;5.30;;;0.60;99.90;;;;;;5033320;28;20017;-78
2023/02/08 09:25:57;;;;;;;14.95;5.82;;;0.70;99.90;;;;;;5033330;28;20022;-77
2023/02/08 09:28:23;;;;;;;14.02;5.20;;;0.80;99.90;;;;;;5034838;28;20024;-78
2023/02/08 09:30:48;;;;;;;11.13;5.32;;;0.90;99.90;;;;;;5033578;28;20013;-78
2023/02/08 09:33:14;;;;;;;13.95;5.28;;;1.00;99.90;;;;;;5033255;28;20021;-77
2023/02/08 09:35:39;;;;;;;15.10;5.50;;;1.10;99.90;;;;;;5034385;28;20014;-77
2023/02/08 09:38:05;;;;;;;11.00;4.45;;;1.20;99.90;;;;;;5033052;28;20477;-77
2023/02/08 09:40:42;;;;;;;14.20;5.78;;;1.20;99.90;;;;;;5034340;28;20093;-78
2023/02/08 09:43:23;;;;;;;14.80;5.85;;;1.20;99.90;;;;;;5032325;28;20107;-78
2023/02/08 09:45:55;;;;;;;13.35;5.60;;;1.40;99.90;;;;;;5033032;28;20025;-79
2023/02/08 09:48:37;;;;;;;11.80;5.13;;;1.50;99.90;;;;;;5033241;28;20025;-79
2023/02/08 09:51:34;;;;;;;18.30;5.85;;;1.60;99.90;;;;;;5034749;28;20514;-79
2023/02/08 09:54:12;;;;;;;11.57;4.35;;;1.70;99.90;;;;;;5034680;28;20057;-79
2023/02/08 09:56:40;;;;;;;14.75;5.22;;;1.70;99.90;;;;;;5033411;28;20029;-79
2023/02/08 09:59:14;;;;;;;12.05;4.82;;;1.80;99.90;;;;;;5033693;28;20439;-79
2023/02/08 10:01:39;;;;;;;16.17;4.97;;;1.90;99.90;;;;;;5033572;28;20117;-79
2023/02/08 10:04:14;;;;;;;16.40;5.30;;;2.00;99.90;;;;;;5034126;28;20049;-79
2023/02/08 10:06:40;;;;;;;11.32;5.35;;;2.00;99.90;;;;;;5034133;28;20025;-79
2023/02/08 10:09:12;;;;;;;16.42;5.38;;;2.10;99.90;;;;;;5033388;28;20028;-79
2023/02/08 10:12:12;;;;;;;16.08;5.35;;;2.20;99.90;;;;;;5033252;28;20029;-79
2023/02/08 10:14:54;;;;;;;13.80;5.50;;;2.30;99.90;;;;;;5034463;28;20112;-79
2023/02/08 10:17:24;;;;;;;15.98;5.95;;;2.40;99.90;;;;;;5032615;28;20507;-79
2023/02/08 10:20:04;;;;;;;16.40;5.78;;;2.50;99.90;;;;;;5032884;28;20490;-79
2023/02/08 10:22:56;;;;;;;15.95;5.03;;;2.50;99.90;;;;;;5033881;28;20033;-79
2023/02/08 10:25:55;;;;;;;10.98;4.20;;;2.60;99.90;;;;;;5025667;28;20050;-80
2023/02/08 10:28:44;;;;;;;14.45;5.45;;;2.70;99.90;;;;;;5032818;28;20033;-79
2023/02/08 10:31:36;;;;;;;11.02;4.82;;;2.80;99.90;;;;;;5032753;28;20025;-79
2023/02/08 10:34:32;;;;;;;10.80;4.13;;;2.90;99.90;;;;;;5033925;28;20071;-79
2023/02/08 10:37:01;;;;;;;11.10;4.30;;;3.00;99.90;;;;;;5032728;28;20039;-79
2023/02/08 10:39:31;;;;;;;8.30;4.07;;;3.00;99.90;;;;;;5032883;28;20057;-79
2023/02/08 10:41:57;;;;;;;12.55;4.90;;;3.10;99.90;;;;;;5033876;28;20022;-77
2023/02/08 10:44:30;;;;;;;10.45;3.75;;;3.20;99.90;;;;;;5032482;28;20022;-77
2023/02/08 10:47:04;;;;;;;10.00;4.40;;;3.20;99.90;;;;;;5032587;28;20029;-78
2023/02/08 10:49:39;;;;;;;10.48;4.53;;;3.30;99.90;;;;;;5033561;28;20100;-78
2023/02/08 10:52:05;;;;;;;11.30;4.50;;;3.40;99.90;;;;;;5032083;28;20507;-78
2023/02/08 10:54:32;;;;;;;11.63;3.75;;;3.40;99.90;;;;;;5034447;28;20025;-78
2023/02/08 10:57:03;;;;;;;10.20;4.43;;;3.50;99.90;;;;;;5036058;28;20399;-78
2023/02/08 10:59:37;;;;;;;9.68;4.80;;;3.50;99.90;;;;;;5036105;28;20045;-78
2023/02/08 11:02:25;;;;;;;9.90;5.00;;;3.60;99.90;;;;;;5036034;28;20449;-80
2023/02/08 11:05:11;;;;;;;10.73;4.45;;;3.70;99.90;;;;;;5035878;28;20109;-77
2023/02/08 11:07:37;;;;;;;10.68;5.25;;;3.80;99.90;;;;;;5035892;28;20021;-78
2023/02/08 11:10:23;;;;;;;9.88;3.97;;;3.90;99.90;;;;;;5035794;28;20021;-77
2023/02/08 11:13:02;;;;;;;9.65;3.90;;;4.00;99.90;;;;;;5035773;28;20402;-79
2023/02/08 11:15:38;;;;;;;10.68;4.15;;;4.00;99.90;;;;;;5035748;28;20514;-79
2023/02/08 11:18:06;;;;;;;13.35;5.07;;;4.10;99.90;;;;;;5035686;28;20083;-79
2023/02/08 11:20:38;;;;;;;10.02;4.18;;;4.10;99.90;;;;;;5035460;28;20523;-78
2023/02/08 11:23:16;;;;;;;12.43;4.80;;;4.20;99.90;;;;;;5035509;28;20030;-79
2023/02/08 11:25:42;;;;;;;11.02;4.35;;;4.30;99.90;;;;;;5036757;28;20025;-79
2023/02/08 11:28:22;;;;;;;14.32;4.00;;;4.30;99.90;;;;;;5035543;28;20029;-79
2023/02/08 11:31:16;;;;;;;9.48;3.53;;;4.40;99.90;;;;;;5035360;28;20422;-79
2023/02/08 11:33:57;;;;;;;7.63;3.40;;;4.50;99.90;;;;;;5034578;28;20034;-79
2023/02/08 11:36:23;;;;;;;10.38;3.95;;;4.50;99.90;;;;;;5035459;28;20492;-79
2023/02/08 11:38:48;;;;;;;13.25;3.88;;;5.00;99.90;;;;;;5035537;28;20021;-79
2023/02/08 11:41:17;;;;;;;10.43;4.13;;;4.60;99.90;;;;;;5035077;28;20412;-79
2023/02/08 11:43:51;;;;;;;;;;;5.50;99.90;;;;;;5035726;28;20013;-79
2023/02/08 11:46:23;;;;;;;7.22;3.20;;;4.80;99.90;;;;;;5035136;28;19909;-79
2023/02/08 11:48:52;;;;;;;7.57;3.05;;;4.90;99.90;;;;;;5035118;28;20022;-79
2023/02/08 11:51:33;;;;;;;10.68;4.10;;;6.00;99.90;;;;;;5036256;28;20029;-79
2023/02/08 11:54:00;;;;;;;11.55;4.43;;;5.00;99.90;;;;;;5034969;28;20029;-79
2023/02/08 11:56:29;;;;;;;10.50;3.90;;;5.10;99.90;;;;;;5035039;28;20480;-79
2023/02/08 11:59:11;;;;;;;6.57;3.25;;;5.30;99.90;;;;;;5036129;28;20163;-79
2023/02/08 12:01:39;;;;;;;10.82;3.78;;;5.50;99.90;;;;;;5034784;28;20029;-79
2023/02/08 12:04:09;;;;;;;6.65;2.95;;;5.50;99.40;;;;;;5034994;28;20024;-79
2023/02/08 12:07:09;;;;;;;11.18;3.80;;;5.60;98.30;;;;;;5033855;28;20112;-79
2023/02/08 12:09:59;;;;;;;10.98;4.68;;;5.60;97.60;;;;;;5036139;28;20029;-79
2023/02/08 12:12:44;;;;;;;10.80;4.05;;;5.70;98.10;;;;;;5034668;28;20496;-79
2023/02/08 12:15:37;;;;;;;8.25;3.72;;;5.80;98.90;;;;;;5034539;28;20499;-79
2023/02/08 12:18:46;;;;;;;8.73;3.70;;;5.90;98.50;;;;;;5034571;28;20025;-79
2023/02/08 12:21:25;;;;;;;8.85;4.22;;;6.00;98.30;;;;;;4996726;28;20150;-79
2023/02/08 12:24:28;;;;;;;11.02;4.00;;;6.10;97.70;;;;;;5035645;28;20385;-79
2023/02/08 12:27:32;;;;;;;7.60;3.70;;;6.20;99.30;;;;;;5034391;28;20432;-79
2023/02/08 12:30:19;;;;;;;10.95;4.07;;;6.50;99.00;;;;;;5034312;28;20033;-78
2023/02/08 12:33:15;;;;;;;10.73;3.55;;;6.60;98.10;;;;;;5034332;28;20030;-79
2023/02/08 12:36:02;;;;;;;11.25;3.70;;;6.70;98.80;;;;;;5034211;28;20033;-79
2023/02/08 12:42:14;;;;;;;5.68;2.88;;;6.90;95.70;;;;;;5035351;28;20103;-79
2023/02/08 12:44:55;;;;;;;6.35;2.60;;;6.90;93.70;;;;;;5034108;28;20112;-79
2023/02/08 12:47:43;;;;;;;6.88;2.72;;;7.00;93.20;;;;;;5035431;28;20031;-79
2023/02/08 12:50:31;;;;;;;5.20;2.40;;;7.10;93.10;;;;;;5033919;28;20026;-78
2023/02/08 12:53:02;;;;;;;5.30;3.10;;;7.30;93.30;;;;;;5033890;28;20171;-79
2023/02/08 12:55:30;;;;;;;9.05;3.20;;;7.50;93.60;;;;;;5034000;28;20029;-79
2023/02/08 12:58:34;;;;;;;10.07;3.22;;;7.70;93.50;;;;;;5033768;28;20119;-79
2023/02/08 13:01:15;;;;;;;7.07;2.95;;;7.90;93.20;;;;;;5020249;28;20484;-79
2023/02/08 13:03:47;;;;;;;8.13;3.53;;;8.10;92.90;;;;;;5034229;28;20023;-79
2023/02/08 13:06:22;;;;;;;7.45;3.00;;;8.10;90.70;;;;;;5034252;28;20040;-79
2023/02/08 13:08:54;;;;;;;7.18;2.78;;;8.10;91.50;;;;;;5035372;28;20030;-79
2023/02/08 13:11:38;;;;;;;5.38;2.40;;;8.30;91.00;;;;;;5035302;28;20025;-79